sensor_id;sensor_type;location;lat;lon;timestamp;pressure;altitude;pressure_sealevel;temperature;humidity
42105;BME280;68365;51.472;5.712;2023-04-22T00:00:55;100617.25;;;15.97;100.00
42105;BME280;68365;51.472;5.712;2023-04-22T00:03:21;100621.50;;;15.98;100.00
42105;BME280;68365;51.472;5.712;2023-04-22T00:05:47;100614.66;;;15.97;100.00
42105;BME280;68365;51.472;5.712;2023-04-22T00:08:13;100611.41;;;15.95;100.00
42105;BME280;68365;51.472;5.712;2023-04-22T00:10:39;100613.84;;;15.97;100.00
42105;BME280;68365;51.472;5.712;2023-04-22T00:13:04;100612.44;;;15.94;100.00
42105;BME280;68365;51.472;5.712;2023-04-22T00:15:30;100610.81;;;15.93;100.00
42105;BME280;68365;51.472;5.712;2023-04-22T00:17:57;100614.44;;;15.92;100.00
42105;BME280;68365;51.472;5.712;2023-04-22T00:20:23;100617.69;;;15.94;100.00
42105;BME280;68365;51.472;5.712;2023-04-22T00:22:50;100611.63;;;15.94;100.00
42105;BME280;68365;51.472;5.712;2023-04-22T00:25:16;100611.22;;;15.90;100.00
42105;BME280;68365;51.472;5.712;2023-04-22T00:27:42;100605.78;;;15.92;100.00
42105;BME280;68365;51.472;5.712;2023-04-22T00:30:09;100598.31;;;15.88;100.00
42105;BME280;68365;51.472;5.712;2023-04-22T00:32:35;100604.34;;;15.89;100.00
42105;BME280;68365;51.472;5.712;2023-04-22T00:35:01;100607.59;;;15.91;100.00
42105;BME280;68365;51.472;5.712;2023-04-22T00:37:27;100610.41;;;15.89;100.00
42105;BME280;68365;51.472;5.712;2023-04-22T00:39:53;100600.53;;;15.85;100.00
42105;BME280;68365;51.472;5.712;2023-04-22T00:42:20;100600.53;;;15.85;100.00
42105;BME280;68365;51.472;5.712;2023-04-22T00:44:46;100614.22;;;15.87;100.00
42105;BME280;68365;51.472;5.712;2023-04-22T00:47:13;100596.91;;;15.86;100.00
42105;BME280;68365;51.472;5.712;2023-04-22T00:49:39;100597.09;;;15.84;100.00
42105;BME280;68365;51.472;5.712;2023-04-22T00:52:04;100598.91;;;15.84;100.00
42105;BME280;68365;51.472;5.712;2023-04-22T00:54:33;100598.72;;;15.85;100.00
42105;BME280;68365;51.472;5.712;2023-04-22T00:56:59;100595.69;;;15.82;100.00
42105;BME280;68365;51.472;5.712;2023-04-22T00:59:27;100597.28;;;15.83;100.00
42105;BME280;68365;51.472;5.712;2023-04-22T01:01:53;100594.06;;;15.81;100.00
42105;BME280;68365;51.472;5.712;2023-04-22T01:04:21;100598.31;;;15.82;100.00
42105;BME280;68365;51.472;5.712;2023-04-22T01:06:49;100595.69;;;15.82;100.00
42105;BME280;68365;51.472;5.712;2023-04-22T01:09:20;100599.28;;;15.81;100.00
42105;BME280;68365;51.472;5.712;2023-04-22T01:11:46;100587.22;;;15.80;100.00
42105;BME280;68365;51.472;5.712;2023-04-22T01:14:12;100590.84;;;15.79;100.00
42105;BME280;68365;51.472;5.712;2023-04-22T01:16:39;100592.28;;;15.81;100.00
42105;BME280;68365;51.472;5.712;2023-04-22T01:19:05;100589.03;;;15.79;100.00
42105;BME280;68365;51.472;5.712;2023-04-22T01:21:34;100587.41;;;15.78;100.00
42105;BME280;68365;51.472;5.712;2023-04-22T01:24:00;100589.03;;;15.79;100.00
42105;BME280;68365;51.472;5.712;2023-04-22T01:26:27;100583.19;;;15.77;100.00
42105;BME280;68365;51.472;5.712;2023-04-22T01:28:53;100571.91;;;15.77;100.00
42105;BME280;68365;51.472;5.712;2023-04-22T01:31:18;100584.00;;;15.78;100.00
42105;BME280;68365;51.472;5.712;2023-04-22T01:33:44;100575.53;;;15.76;100.00
42105;BME280;68365;51.472;5.712;2023-04-22T01:36:11;100571.28;;;15.75;100.00
42105;BME280;68365;51.472;5.712;2023-04-22T01:38:37;100568.31;;;15.78;100.00
42105;BME280;68365;51.472;5.712;2023-04-22T01:41:03;100571.28;;;15.75;100.00
42105;BME280;68365;51.472;5.712;2023-04-22T01:43:29;100571.91;;;15.77;100.00
42105;BME280;68365;51.472;5.712;2023-04-22T01:45:56;100575.72;;;15.74;100.00
42105;BME280;68365;51.472;5.712;2023-04-22T01:48:22;100578.16;;;15.76;100.00
42105;BME280;68365;51.472;5.712;2023-04-22T01:50:48;100576.75;;;15.73;100.00
42105;BME280;68365;51.472;5.712;2023-04-22T01:53:14;100570.03;;;15.70;100.00
42105;BME280;68365;51.472;5.712;2023-04-22T01:55:40;100574.94;;;15.74;100.00
42105;BME280;68365;51.472;5.712;2023-04-22T01:58:07;100565.63;;;15.71;100.00
42105;BME280;68365;51.472;5.712;2023-04-22T02:00:33;100576.09;;;15.71;100.00
42105;BME280;68365;51.472;5.712;2023-04-22T02:02:59;100579.16;;;15.75;100.00
42105;BME280;68365;51.472;5.712;2023-04-22T02:05:25;100571.50;;;15.73;100.00
42105;BME280;68365;51.472;5.712;2023-04-22T02:07:52;100574.28;;;15.72;100.00
42105;BME280;68365;51.472;5.712;2023-04-22T02:10:19;100573.50;;;15.71;100.00
42105;BME280;68365;51.472;5.712;2023-04-22T02:12:45;100568.25;;;15.71;100.00
42105;BME280;68365;51.472;5.712;2023-04-22T02:15:11;100565.84;;;15.69;100.00
42105;BME280;68365;51.472;5.712;2023-04-22T02:17:37;100565.84;;;15.69;100.00
42105;BME280;68365;51.472;5.712;2023-04-22T02:20:04;100571.88;;;15.70;100.00
42105;BME280;68365;51.472;5.712;2023-04-22T02:22:31;100566.03;;;15.68;100.00
42105;BME280;68365;51.472;5.712;2023-04-22T02:24:57;100564.19;;;15.68;100.00
42105;BME280;68365;51.472;5.712;2023-04-22T02:27:23;100563.03;;;15.71;100.00
42105;BME280;68365;51.472;5.712;2023-04-22T02:29:49;100563.03;;;15.71;100.00
42105;BME280;68365;51.472;5.712;2023-04-22T02:32:15;100557.38;;;15.67;100.00
42105;BME280;68365;51.472;5.712;2023-04-22T02:34:42;100558.78;;;15.70;100.00
42105;BME280;68365;51.472;5.712;2023-04-22T02:37:08;100556.34;;;15.68;100.00
42105;BME280;68365;51.472;5.712;2023-04-22T02:39:34;100548.13;;;15.65;100.00
42105;BME280;68365;51.472;5.712;2023-04-22T02:41:59;100555.38;;;15.69;100.00
42105;BME280;68365;51.472;5.712;2023-04-22T02:44:26;100546.72;;;15.69;100.00
42105;BME280;68365;51.472;5.712;2023-04-22T02:46:51;100549.13;;;15.70;100.00
42105;BME280;68365;51.472;5.712;2023-04-22T02:49:17;100545.69;;;15.70;100.00
42105;BME280;68365;51.472;5.712;2023-04-22T02:51:43;100544.66;;;15.64;100.00
42105;BME280;68365;51.472;5.712;2023-04-22T02:54:09;100542.88;;;15.65;100.00
42105;BME280;68365;51.472;5.712;2023-04-22T02:56:34;100549.09;;;15.64;100.00
42105;BME280;68365;51.472;5.712;2023-04-22T02:59:00;100542.88;;;15.65;100.00
42105;BME280;68365;51.472;5.712;2023-04-22T03:01:26;100548.31;;;15.63;100.00
42105;BME280;68365;51.472;5.712;2023-04-22T03:03:52;100543.88;;;15.64;100.00
42105;BME280;68365;51.472;5.712;2023-04-22T03:06:18;100547.50;;;15.63;100.00
42105;BME280;68365;51.472;5.712;2023-04-22T03:08:44;100543.06;;;15.63;100.00
42105;BME280;68365;51.472;5.712;2023-04-22T03:11:09;100533.41;;;15.64;100.00
42105;BME280;68365;51.472;5.712;2023-04-22T03:13:35;100535.22;;;15.63;100.00
42105;BME280;68365;51.472;5.712;2023-04-22T03:16:01;100532.41;;;15.65;100.00
42105;BME280;68365;51.472;5.712;2023-04-22T03:18:27;100526.34;;;15.64;100.00
42105;BME280;68365;51.472;5.712;2023-04-22T03:20:52;100527.38;;;15.63;100.00
42105;BME280;68365;51.472;5.712;2023-04-22T03:23:18;100522.13;;;15.63;100.00
42105;BME280;68365;51.472;5.712;2023-04-22T03:25:44;100520.13;;;15.65;100.00
42105;BME280;68365;51.472;5.712;2023-04-22T03:28:10;100514.91;;;15.65;100.00
42105;BME280;68365;51.472;5.712;2023-04-22T03:30:35;100517.94;;;15.69;100.00
42105;BME280;68365;51.472;5.712;2023-04-22T03:33:01;100516.72;;;15.65;100.00
42105;BME280;68365;51.472;5.712;2023-04-22T03:35:27;100505.41;;;15.64;100.00
42105;BME280;68365;51.472;5.712;2023-04-22T03:37:53;100506.25;;;15.65;100.00
42105;BME280;68365;51.472;5.712;2023-04-22T03:40:19;100494.94;;;15.64;100.00
42105;BME280;68365;51.472;5.712;2023-04-22T03:42:45;100500.41;;;15.63;100.00
42105;BME280;68365;51.472;5.712;2023-04-22T03:45:10;100500.78;;;15.60;100.00
42105;BME280;68365;51.472;5.712;2023-04-22T03:47:36;100503.81;;;15.63;100.00
42105;BME280;68365;51.472;5.712;2023-04-22T03:50:02;100491.72;;;15.62;100.00
42105;BME280;68365;51.472;5.712;2023-04-22T03:52:28;100490.13;;;15.61;100.00
42105;BME280;68365;51.472;5.712;2023-04-22T03:54:54;100500.19;;;15.64;100.00
42105;BME280;68365;51.472;5.712;2023-04-22T03:57:19;100497.19;;;15.61;100.00
42105;BME280;68365;51.472;5.712;2023-04-22T03:59:45;100491.13;;;15.60;100.00
42105;BME280;68365;51.472;5.712;2023-04-22T04:02:11;100483.28;;;15.60;100.00
42105;BME280;68365;51.472;5.712;2023-04-22T04:04:37;100483.69;;;15.64;100.00
42105;BME280;68365;51.472;5.712;2023-04-22T04:07:02;100480.66;;;15.60;100.00
42105;BME280;68365;51.472;5.712;2023-04-22T04:09:28;100479.66;;;15.61;100.00
42105;BME280;68365;51.472;5.712;2023-04-22T04:11:57;100482.09;;;15.63;100.00
42105;BME280;68365;51.472;5.712;2023-04-22T04:14:22;100477.25;;;15.60;100.00
42105;BME280;68365;51.472;5.712;2023-04-22T04:16:48;100480.09;;;15.65;100.00
42105;BME280;68365;51.472;5.712;2023-04-22T04:19:14;100472.44;;;15.63;100.00
42105;BME280;68365;51.472;5.712;2023-04-22T04:21:40;100467.00;;;15.65;100.00
42105;BME280;68365;51.472;5.712;2023-04-22T04:24:06;100464.78;;;15.62;100.00
42105;BME280;68365;51.472;5.712;2023-04-22T04:26:32;100468.41;;;15.61;100.00
42105;BME280;68365;51.472;5.712;2023-04-22T04:28:59;100464.78;;;15.62;100.00
42105;BME280;68365;51.472;5.712;2023-04-22T04:31:28;100463.34;;;15.59;100.00
42105;BME280;68365;51.472;5.712;2023-04-22T04:33:53;100475.41;;;15.60;100.00
42105;BME280;68365;51.472;5.712;2023-04-22T04:36:22;100475.84;;;15.64;100.00
42105;BME280;68365;51.472;5.712;2023-04-22T04:38:50;100470.00;;;15.62;100.00
42105;BME280;68365;51.472;5.712;2023-04-22T04:41:16;100475.41;;;15.60;100.00
42105;BME280;68365;51.472;5.712;2023-04-22T04:43:46;100472.19;;;15.58;100.00
42105;BME280;68365;51.472;5.712;2023-04-22T04:46:13;100468.38;;;15.54;100.00
42105;BME280;68365;51.472;5.712;2023-04-22T04:48:40;100471.59;;;15.56;100.00
42105;BME280;68365;51.472;5.712;2023-04-22T04:51:07;100479.84;;;15.60;100.00
42105;BME280;68365;51.472;5.712;2023-04-22T04:53:33;100479.47;;;15.63;100.00
42105;BME280;68365;51.472;5.712;2023-04-22T04:55:59;100471.03;;;15.61;100.00
42105;BME280;68365;51.472;5.712;2023-04-22T04:58:25;100465.78;;;15.61;100.00
42105;BME280;68365;51.472;5.712;2023-04-22T05:00:51;100465.56;;;15.62;100.00
42105;BME280;68365;51.472;5.712;2023-04-22T05:03:17;100463.16;;;15.61;100.00
42105;BME280;68365;51.472;5.712;2023-04-22T05:05:42;100471.41;;;15.64;100.00
42105;BME280;68365;51.472;5.712;2023-04-22T05:08:10;100469.19;;;15.61;100.00
42105;BME280;68365;51.472;5.712;2023-04-22T05:10:36;100470.59;;;15.64;100.00
42105;BME280;68365;51.472;5.712;2023-04-22T05:13:02;100473.81;;;15.59;100.00
42105;BME280;68365;51.472;5.712;2023-04-22T05:15:28;100466.78;;;15.60;100.00
42105;BME280;68365;51.472;5.712;2023-04-22T05:17:53;100473.63;;;15.61;100.00
42105;BME280;68365;51.472;5.712;2023-04-22T05:20:19;100472.22;;;15.65;100.00
42105;BME280;68365;51.472;5.712;2023-04-22T05:22:45;100468.41;;;15.61;100.00
42105;BME280;68365;51.472;5.712;2023-04-22T05:25:11;100480.47;;;15.62;100.00
42105;BME280;68365;51.472;5.712;2023-04-22T05:27:37;100471.63;;;15.63;100.00
42105;BME280;68365;51.472;5.712;2023-04-22T05:30:03;100471.81;;;15.61;100.00
42105;BME280;68365;51.472;5.712;2023-04-22T05:32:29;100474.84;;;15.65;100.00
42105;BME280;68365;51.472;5.712;2023-04-22T05:34:55;100477.25;;;15.66;100.00
42105;BME280;68365;51.472;5.712;2023-04-22T05:37:20;100466.59;;;15.61;100.00
42105;BME280;68365;51.472;5.712;2023-04-22T05:39:46;100480.47;;;15.68;100.00
42105;BME280;68365;51.472;5.712;2023-04-22T05:42:12;100471.03;;;15.67;100.00
42105;BME280;68365;51.472;5.712;2023-04-22T05:44:38;100472.44;;;15.70;100.00
42105;BME280;68365;51.472;5.712;2023-04-22T05:47:04;100462.97;;;15.69;100.00
42105;BME280;68365;51.472;5.712;2023-04-22T05:49:29;100474.84;;;15.72;100.00
42105;BME280;68365;51.472;5.712;2023-04-22T05:51:55;100474.47;;;15.75;100.00
42105;BME280;68365;51.472;5.712;2023-04-22T05:54:21;100475.50;;;15.74;100.00
42105;BME280;68365;51.472;5.712;2023-04-22T05:56:47;100481.75;;;15.79;100.00
42105;BME280;68365;51.472;5.712;2023-04-22T05:59:12;100475.50;;;15.80;100.00
42105;BME280;68365;51.472;5.712;2023-04-22T06:01:38;100481.94;;;15.84;100.00
42105;BME280;68365;51.472;5.712;2023-04-22T06:04:04;100474.69;;;15.86;100.00
42105;BME280;68365;51.472;5.712;2023-04-22T06:06:31;100476.69;;;15.91;100.00
42105;BME280;68365;51.472;5.712;2023-04-22T06:08:57;100479.31;;;15.91;100.00
42105;BME280;68365;51.472;5.712;2023-04-22T06:11:23;100474.88;;;15.85;100.00
42105;BME280;68365;51.472;5.712;2023-04-22T06:13:49;100477.50;;;15.85;100.00
42105;BME280;68365;51.472;5.712;2023-04-22T06:16:15;100479.13;;;15.86;100.00
42105;BME280;68365;51.472;5.712;2023-04-22T06:18:40;100474.91;;;15.92;100.00
42105;BME280;68365;51.472;5.712;2023-04-22T06:21:08;100474.91;;;15.98;100.00
42105;BME280;68365;51.472;5.712;2023-04-22T06:23:34;100470.88;;;16.02;100.00
42105;BME280;68365;51.472;5.712;2023-04-22T06:26:00;100459.81;;;16.07;100.00
42105;BME280;68365;51.472;5.712;2023-04-22T06:28:27;100464.84;;;16.08;100.00
42105;BME280;68365;51.472;5.712;2023-04-22T06:30:55;100469.66;;;16.12;100.00
42105;BME280;68365;51.472;5.712;2023-04-22T06:33:21;100457.16;;;16.14;100.00
42105;BME280;68365;51.472;5.712;2023-04-22T06:35:47;100453.38;;;16.16;100.00
42105;BME280;68365;51.472;5.712;2023-04-22T06:38:13;100451.53;;;16.17;100.00
42105;BME280;68365;51.472;5.712;2023-04-22T06:40:38;100460.59;;;16.21;100.00
42105;BME280;68365;51.472;5.712;2023-04-22T06:43:04;100466.44;;;16.23;100.00
42105;BME280;68365;51.472;5.712;2023-04-22T06:45:30;100456.78;;;16.23;100.00
42105;BME280;68365;51.472;5.712;2023-04-22T06:47:56;100441.47;;;16.20;100.00
42105;BME280;68365;51.472;5.712;2023-04-22T06:50:22;100436.00;;;16.22;100.00
42105;BME280;68365;51.472;5.712;2023-04-22T06:52:48;100436.00;;;16.22;100.00
42105;BME280;68365;51.472;5.712;2023-04-22T06:55:13;100437.63;;;16.23;100.00
42105;BME280;68365;51.472;5.712;2023-04-22T06:57:39;100443.06;;;16.28;100.00
42105;BME280;68365;51.472;5.712;2023-04-22T07:00:06;100440.84;;;16.25;100.00
42105;BME280;68365;51.472;5.712;2023-04-22T07:02:35;100453.53;;;16.28;100.00
42105;BME280;68365;51.472;5.712;2023-04-22T07:05:01;100440.44;;;16.28;100.00
42105;BME280;68365;51.472;5.712;2023-04-22T07:07:27;100439.84;;;16.26;100.00
42105;BME280;68365;51.472;5.712;2023-04-22T07:09:53;100436.22;;;16.27;100.00
42105;BME280;68365;51.472;5.712;2023-04-22T07:12:18;100435.03;;;16.23;100.00
42105;BME280;68365;51.472;5.712;2023-04-22T07:14:45;100438.44;;;16.23;100.00
42105;BME280;68365;51.472;5.712;2023-04-22T07:17:11;100432.22;;;16.24;100.00
42105;BME280;68365;51.472;5.712;2023-04-22T07:19:38;100427.34;;;16.28;100.00
42105;BME280;68365;51.472;5.712;2023-04-22T07:22:04;100429.97;;;16.28;100.00
42105;BME280;68365;51.472;5.712;2023-04-22T07:24:31;100428.34;;;16.34;100.00
42105;BME280;68365;51.472;5.712;2023-04-22T07:26:57;100420.88;;;16.44;100.00
42105;BME280;68365;51.472;5.712;2023-04-22T07:29:23;100417.03;;;16.46;100.00
42105;BME280;68365;51.472;5.712;2023-04-22T07:31:49;100425.50;;;16.48;100.00
42105;BME280;68365;51.472;5.712;2023-04-22T07:34:16;100428.94;;;16.49;100.00
42105;BME280;68365;51.472;5.712;2023-04-22T07:36:42;100431.38;;;16.37;100.00
42105;BME280;68365;51.472;5.712;2023-04-22T07:39:08;100436.19;;;16.40;100.00
42105;BME280;68365;51.472;5.712;2023-04-22T07:41:34;100432.56;;;16.41;100.00
42105;BME280;68365;51.472;5.712;2023-04-22T07:44:01;100427.94;;;16.43;100.00
42105;BME280;68365;51.472;5.712;2023-04-22T07:46:28;100432.34;;;16.49;100.00
42105;BME280;68365;51.472;5.712;2023-04-22T07:48:54;100432.34;;;16.56;100.00
42105;BME280;68365;51.472;5.712;2023-04-22T07:51:20;100430.50;;;16.57;100.00
42105;BME280;68365;51.472;5.712;2023-04-22T07:53:46;100426.91;;;16.44;100.00
42105;BME280;68365;51.472;5.712;2023-04-22T07:56:12;100433.34;;;16.48;100.00
42105;BME280;68365;51.472;5.712;2023-04-22T07:58:38;100441.22;;;16.48;100.00
42105;BME280;68365;51.472;5.712;2023-04-22T08:01:04;100432.38;;;16.29;100.00
42105;BME280;68365;51.472;5.712;2023-04-22T08:03:29;100432.97;;;16.38;100.00
42105;BME280;68365;51.472;5.712;2023-04-22T08:05:55;100424.88;;;16.46;100.00
42105;BME280;68365;51.472;5.712;2023-04-22T08:08:23;100426.94;;;16.38;100.00
42105;BME280;68365;51.472;5.712;2023-04-22T08:10:49;100423.50;;;16.44;100.00
42105;BME280;68365;51.472;5.712;2023-04-22T08:13:15;100425.34;;;16.37;100.00
42105;BME280;68365;51.472;5.712;2023-04-22T08:15:41;100412.81;;;16.32;100.00
42105;BME280;68365;51.472;5.712;2023-04-22T08:18:06;100404.38;;;16.30;100.00
42105;BME280;68365;51.472;5.712;2023-04-22T08:20:32;100395.72;;;16.29;100.00
42105;BME280;68365;51.472;5.712;2023-04-22T08:22:58;100395.50;;;16.38;100.00
42105;BME280;68365;51.472;5.712;2023-04-22T08:25:26;100391.06;;;16.32;100.00
42105;BME280;68365;51.472;5.712;2023-04-22T08:27:52;100397.94;;;16.33;100.00
42105;BME280;68365;51.472;5.712;2023-04-22T08:30:18;100392.09;;;16.37;100.00
42105;BME280;68365;51.472;5.712;2023-04-22T08:32:44;100390.06;;;16.39;100.00
42105;BME280;68365;51.472;5.712;2023-04-22T08:35:10;100387.25;;;16.41;100.00
42105;BME280;68365;51.472;5.712;2023-04-22T08:37:36;100391.25;;;16.43;100.00
42105;BME280;68365;51.472;5.712;2023-04-22T08:40:06;100386.84;;;16.37;100.00
42105;BME280;68365;51.472;5.712;2023-04-22T08:42:32;100386.44;;;16.34;100.00
42105;BME280;68365;51.472;5.712;2023-04-22T08:45:00;100382.00;;;16.34;100.00
42105;BME280;68365;51.472;5.712;2023-04-22T08:47:27;100380.22;;;16.35;100.00
42105;BME280;68365;51.472;5.712;2023-04-22T08:49:54;100375.94;;;16.40;100.00
42105;BME280;68365;51.472;5.712;2023-04-22T08:52:21;100366.06;;;16.42;100.00
42105;BME280;68365;51.472;5.712;2023-04-22T08:54:46;100354.38;;;16.45;100.00
42105;BME280;68365;51.472;5.712;2023-04-22T08:57:14;100356.78;;;16.46;100.00
42105;BME280;68365;51.472;5.712;2023-04-22T08:59:41;100355.97;;;16.46;100.00
42105;BME280;68365;51.472;5.712;2023-04-22T09:02:15;100360.41;;;16.45;100.00
42105;BME280;68365;51.472;5.712;2023-04-22T09:04:42;100360.59;;;16.57;100.00
42105;BME280;68365;51.472;5.712;2023-04-22T09:07:10;100360.00;;;16.55;100.00
42105;BME280;68365;51.472;5.712;2023-04-22T09:09:36;100360.38;;;16.52;100.00
42105;BME280;68365;51.472;5.712;2023-04-22T09:12:03;100364.84;;;16.52;100.00
42105;BME280;68365;51.472;5.712;2023-04-22T09:14:31;100368.84;;;16.54;100.00
42105;BME280;68365;51.472;5.712;2023-04-22T09:16:58;100367.03;;;16.55;100.00
42105;BME280;68365;51.472;5.712;2023-04-22T09:19:23;100365.63;;;16.52;100.00
42105;BME280;68365;51.472;5.712;2023-04-22T09:21:50;100361.81;;;16.48;100.00
42105;BME280;68365;51.472;5.712;2023-04-22T09:24:17;100360.00;;;16.48;100.00
42105;BME280;68365;51.472;5.712;2023-04-22T09:26:45;100364.44;;;16.48;100.00
42105;BME280;68365;51.472;5.712;2023-04-22T09:29:15;100361.41;;;16.51;100.00
42105;BME280;68365;51.472;5.712;2023-04-22T09:31:47;100357.19;;;16.50;100.00
42105;BME280;68365;51.472;5.712;2023-04-22T09:34:14;100342.84;;;16.59;100.00
42105;BME280;68365;51.472;5.712;2023-04-22T09:36:42;100352.06;;;16.68;100.00
42105;BME280;68365;51.472;5.712;2023-04-22T09:39:08;100346.84;;;16.62;100.00
42105;BME280;68365;51.472;5.712;2023-04-22T09:41:37;100359.16;;;16.61;100.00
42105;BME280;68365;51.472;5.712;2023-04-22T09:44:15;100350.47;;;16.61;100.00
42105;BME280;68365;51.472;5.712;2023-04-22T09:46:43;100350.09;;;16.57;100.00
42105;BME280;68365;51.472;5.712;2023-04-22T09:49:10;100356.16;;;16.58;100.00
42105;BME280;68365;51.472;5.712;2023-04-22T09:51:40;100364.59;;;16.60;100.00
42105;BME280;68365;51.472;5.712;2023-04-22T09:54:07;100358.72;;;16.64;100.00
42105;BME280;68365;51.472;5.712;2023-04-22T09:56:51;100357.50;;;16.67;100.00
42105;BME280;68365;51.472;5.712;2023-04-22T09:59:24;100352.84;;;16.69;100.00
42105;BME280;68365;51.472;5.712;2023-04-22T10:02:01;100358.94;;;16.69;100.00
42105;BME280;68365;51.472;5.712;2023-04-22T10:04:31;100357.84;;;16.77;100.00
42105;BME280;68365;51.472;5.712;2023-04-22T10:06:57;100360.28;;;16.79;100.00
42105;BME280;68365;51.472;5.712;2023-04-22T10:09:24;100353.06;;;16.74;100.00
42105;BME280;68365;51.472;5.712;2023-04-22T10:11:52;100352.25;;;16.74;100.00
42105;BME280;68365;51.472;5.712;2023-04-22T10:14:21;100347.84;;;16.67;100.00
42105;BME280;68365;51.472;5.712;2023-04-22T10:16:49;100355.72;;;16.67;100.00
42105;BME280;68365;51.472;5.712;2023-04-22T10:19:21;100346.22;;;16.66;100.00
42105;BME280;68365;51.472;5.712;2023-04-22T10:21:52;100349.88;;;16.65;100.00
42105;BME280;68365;51.472;5.712;2023-04-22T10:24:20;100355.50;;;16.62;100.00
42105;BME280;68365;51.472;5.712;2023-04-22T10:26:54;100356.09;;;16.64;100.00
42105;BME280;68365;51.472;5.712;2023-04-22T10:29:23;100356.09;;;16.64;100.00
42105;BME280;68365;51.472;5.712;2023-04-22T10:32:04;100354.09;;;16.66;100.00
42105;BME280;68365;51.472;5.712;2023-04-22T10:34:31;100344.41;;;16.67;100.00
42105;BME280;68365;51.472;5.712;2023-04-22T10:37:07;100351.91;;;16.63;100.00
42105;BME280;68365;51.472;5.712;2023-04-22T10:39:33;100353.91;;;16.61;100.00
42105;BME280;68365;51.472;5.712;2023-04-22T10:44:50;100360.13;;;16.67;100.00
42105;BME280;68365;51.472;5.712;2023-04-22T10:47:37;100336.19;;;16.63;100.00
42105;BME280;68365;51.472;5.712;2023-04-22T10:55:22;100320.97;;;16.79;100.00
42105;BME280;68365;51.472;5.712;2023-04-22T10:57:50;100328.22;;;16.83;100.00
42105;BME280;68365;51.472;5.712;2023-04-22T11:03:26;100337.25;;;16.94;100.00
42105;BME280;68365;51.472;5.712;2023-04-22T11:06:19;100341.50;;;16.88;100.00
42105;BME280;68365;51.472;5.712;2023-04-22T11:09:05;100336.31;;;16.82;100.00
42105;BME280;68365;51.472;5.712;2023-04-22T11:11:32;100344.56;;;16.79;100.00
42105;BME280;68365;51.472;5.712;2023-04-22T11:13:59;100337.72;;;16.71;100.00
42105;BME280;68365;51.472;5.712;2023-04-22T11:16:25;100334.94;;;16.66;100.00
42105;BME280;68365;51.472;5.712;2023-04-22T11:18:51;100340.00;;;16.61;100.00
42105;BME280;68365;51.472;5.712;2023-04-22T11:21:17;100343.03;;;16.58;100.00
42105;BME280;68365;51.472;5.712;2023-04-22T11:23:51;100347.69;;;16.56;100.00
42105;BME280;68365;51.472;5.712;2023-04-22T11:26:18;100336.00;;;16.52;100.00
42105;BME280;68365;51.472;5.712;2023-04-22T11:28:47;100337.22;;;16.56;100.00
42105;BME280;68365;51.472;5.712;2023-04-22T11:31:13;100327.13;;;16.53;100.00
42105;BME280;68365;51.472;5.712;2023-04-22T11:33:39;100337.59;;;16.59;100.00
42105;BME280;68365;51.472;5.712;2023-04-22T11:36:10;100324.09;;;16.56;100.00
42105;BME280;68365;51.472;5.712;2023-04-22T11:38:36;100327.94;;;16.53;100.00
42105;BME280;68365;51.472;5.712;2023-04-22T11:41:02;100321.84;;;16.66;100.00
42105;BME280;68365;51.472;5.712;2023-04-22T11:43:29;100347.44;;;16.64;100.00
42105;BME280;68365;51.472;5.712;2023-04-22T11:45:56;100336.56;;;16.60;100.00
42105;BME280;68365;51.472;5.712;2023-04-22T11:48:23;100335.34;;;16.63;100.00
42105;BME280;68365;51.472;5.712;2023-04-22T11:50:49;100336.56;;;16.60;100.00
42105;BME280;68365;51.472;5.712;2023-04-22T11:53:20;100326.88;;;16.61;100.00
42105;BME280;68365;51.472;5.712;2023-04-22T11:55:50;100334.75;;;16.61;100.00
42105;BME280;68365;51.472;5.712;2023-04-22T11:58:38;100336.78;;;16.59;100.00
42105;BME280;68365;51.472;5.712;2023-04-22T12:01:05;100331.78;;;16.57;100.00
42105;BME280;68365;51.472;5.712;2023-04-22T12:03:33;100338.78;;;16.57;100.00
42105;BME280;68365;51.472;5.712;2023-04-22T12:06:05;100327.72;;;16.55;100.00
42105;BME280;68365;51.472;5.712;2023-04-22T12:08:37;100330.34;;;16.55;100.00
42105;BME280;68365;51.472;5.712;2023-04-22T12:11:09;100329.53;;;16.54;100.00
42105;BME280;68365;51.472;5.712;2023-04-22T12:16:04;100339.03;;;16.55;100.00
42105;BME280;68365;51.472;5.712;2023-04-22T12:18:39;100347.03;;;16.67;100.00
42105;BME280;68365;51.472;5.712;2023-04-22T12:21:13;100350.66;;;16.66;100.00
42105;BME280;68365;51.472;5.712;2023-04-22T12:23:59;100346.06;;;16.61;100.00
42105;BME280;68365;51.472;5.712;2023-04-22T12:26:26;100345.66;;;16.58;100.00
42105;BME280;68365;51.472;5.712;2023-04-22T12:28:53;100342.25;;;16.57;100.00
42105;BME280;68365;51.472;5.712;2023-04-22T12:31:20;100345.66;;;16.58;100.00
42105;BME280;68365;51.472;5.712;2023-04-22T12:33:46;100349.06;;;16.58;100.00
42105;BME280;68365;51.472;5.712;2023-04-22T12:36:12;100338.44;;;16.53;100.00
42105;BME280;68365;51.472;5.712;2023-04-22T12:38:38;100336.59;;;16.54;100.00
42105;BME280;68365;51.472;5.712;2023-04-22T12:41:05;100335.78;;;16.60;100.00
42105;BME280;68365;51.472;5.712;2023-04-22T12:43:32;100341.03;;;16.60;100.00
42105;BME280;68365;51.472;5.712;2023-04-22T12:46:02;100347.25;;;16.59;100.00
42105;BME280;68365;51.472;5.712;2023-04-22T12:48:28;100347.69;;;16.56;100.00
42105;BME280;68365;51.472;5.712;2023-04-22T12:50:54;100365.84;;;16.57;100.00
42105;BME280;68365;51.472;5.712;2023-04-22T12:53:22;100368.44;;;16.57;100.00